Time;durP1;ratioP1;P1;durP2;ratioP2;P2;SDS_P1;SDS_P2;PMS_P1;PMS_P2;Temp;Humidity;BMP_temperature;BMP_pressure;BME280_temperature;BME280_humidity;BME280_pressure;Samples;Min_cycle;Max_cycle;Signal;HPM_P1;HPM_P2
2021/05/27 00:00:29;;;;;;;4.60;2.65;;;9.20;99.90;;;;;;5100012;28;20024;-77
2021/05/27 00:02:55;;;;;;;5.38;2.50;;;9.10;99.90;;;;;;5095133;28;20023;-77
2021/05/27 00:05:21;;;;;;;4.32;2.85;;;9.10;99.90;;;;;;5092658;28;20069;-77
2021/05/27 00:07:47;;;;;;;5.45;3.80;;;9.00;99.90;;;;;;5092220;28;20105;-77
2021/05/27 00:10:16;;;;;;;7.68;2.90;;;9.10;99.90;;;;;;5091317;28;20499;-77
2021/05/27 00:12:42;;;;;;;4.43;2.70;;;9.10;99.90;;;;;;5092575;28;20020;-77
2021/05/27 00:15:09;;;;;;;5.78;2.50;;;9.10;99.90;;;;;;5091844;28;20023;-77
2021/05/27 00:17:35;;;;;;;6.88;3.17;;;9.10;99.90;;;;;;5092521;28;20488;-77
2021/05/27 00:20:02;;;;;;;3.67;2.83;;;9.10;99.90;;;;;;5091942;28;20035;-77
2021/05/27 00:22:28;;;;;;;6.63;3.58;;;9.10;99.90;;;;;;5095980;28;20024;-77
2021/05/27 00:24:54;;;;;;;8.55;2.97;;;9.10;99.90;;;;;;5111073;28;20034;-77
2021/05/27 00:27:20;;;;;;;5.00;3.47;;;9.10;99.90;;;;;;5112087;28;20028;-77
2021/05/27 00:29:46;;;;;;;5.93;3.20;;;9.00;99.90;;;;;;5111867;28;20030;-77
2021/05/27 00:32:11;;;;;;;6.20;2.80;;;8.90;99.90;;;;;;5111454;28;20504;-77
2021/05/27 00:34:37;;;;;;;5.20;2.40;;;8.90;99.90;;;;;;5112286;28;20027;-77
2021/05/27 00:37:03;;;;;;;4.30;2.83;;;8.80;99.90;;;;;;5111786;28;20521;-77
2021/05/27 00:39:29;;;;;;;4.90;2.35;;;8.70;99.90;;;;;;5099810;28;20035;-77
2021/05/27 00:41:57;;;;;;;5.15;2.17;;;8.60;99.90;;;;;;5091957;28;20438;-77
2021/05/27 00:44:23;;;;;;;5.32;2.78;;;8.50;99.90;;;;;;5091411;28;20028;-77
2021/05/27 00:46:51;;;;;;;3.38;2.50;;;8.60;99.90;;;;;;5091842;28;20372;-77
2021/05/27 00:49:17;;;;;;;3.25;2.20;;;8.50;99.90;;;;;;5091875;28;20017;-77
2021/05/27 00:51:44;;;;;;;4.20;2.55;;;8.50;99.90;;;;;;5090607;28;20032;-77
2021/05/27 00:54:10;;;;;;;4.55;2.92;;;8.50;99.90;;;;;;5094702;28;20070;-77
2021/05/27 00:56:36;;;;;;;3.97;2.60;;;8.60;99.90;;;;;;5095791;28;20110;-77
2021/05/27 00:59:03;;;;;;;4.75;2.58;;;8.60;99.90;;;;;;5095356;28;20115;-77
2021/05/27 01:01:28;;;;;;;3.92;2.38;;;8.60;99.90;;;;;;5094208;28;20028;-77
2021/05/27 01:03:54;;;;;;;6.15;3.53;;;7.90;99.90;;;;;;5105589;28;20027;-77
2021/05/27 01:06:20;;;;;;;9.27;3.53;;;7.70;99.90;;;;;;5096736;28;20055;-77
2021/05/27 01:08:46;;;;;;;3.10;2.38;;;8.10;99.90;;;;;;5095633;28;20035;-77
2021/05/27 01:11:12;;;;;;;4.22;2.78;;;8.20;99.90;;;;;;5095613;28;20059;-77
2021/05/27 01:13:37;;;;;;;2.85;2.03;;;8.20;99.90;;;;;;5093756;28;20012;-77
2021/05/27 01:16:03;;;;;;;5.00;2.40;;;8.10;99.90;;;;;;5095371;28;20047;-77
2021/05/27 01:18:29;;;;;;;4.75;2.40;;;8.10;99.90;;;;;;5095008;28;20024;-77
2021/05/27 01:20:57;;;;;;;5.38;2.33;;;8.10;99.90;;;;;;5095186;28;20024;-77
2021/05/27 01:23:26;;;;;;;4.20;2.92;;;8.10;99.90;;;;;;5095520;28;20028;-77
2021/05/27 01:25:54;;;;;;;5.00;3.28;;;8.20;99.90;;;;;;5095306;28;20016;-77
2021/05/27 01:28:20;;;;;;;8.38;3.22;;;8.30;99.90;;;;;;5094290;28;20028;-77
2021/05/27 01:30:47;;;;;;;5.00;3.10;;;8.20;99.90;;;;;;5095334;28;20027;-77
2021/05/27 01:33:15;;;;;;;5.28;2.92;;;8.20;99.90;;;;;;5095634;28;20048;-77
2021/05/27 01:35:41;;;;;;;6.65;2.80;;;8.20;99.90;;;;;;5095258;28;20505;-77
2021/05/27 01:38:16;;;;;;;6.68;2.55;;;8.10;99.90;;;;;;5099420;28;20111;-77
2021/05/27 01:40:43;;;;;;;2.75;2.35;;;8.10;99.90;;;;;;5095281;28;20527;-77
2021/05/27 01:43:09;;;;;;;5.78;2.75;;;8.10;99.90;;;;;;5094896;28;20020;-77
2021/05/27 01:45:35;;;;;;;6.45;2.78;;;8.10;99.90;;;;;;5095148;28;20047;-77
2021/05/27 01:48:02;;;;;;;4.85;3.05;;;8.10;99.90;;;;;;5094981;28;20391;-77
2021/05/27 01:50:28;;;;;;;5.88;4.07;;;8.10;99.90;;;;;;5096649;28;20496;-77
2021/05/27 01:53:07;;;;;;;6.40;3.50;;;8.10;99.90;;;;;;5109800;28;20043;-77
2021/05/27 01:55:33;;;;;;;4.47;3.05;;;8.20;99.90;;;;;;5094925;28;20059;-77
2021/05/27 01:57:59;;;;;;;5.50;2.90;;;8.10;99.90;;;;;;5100212;28;20016;-77
2021/05/27 02:00:29;;;;;;;4.68;2.83;;;8.00;99.90;;;;;;5109826;28;20057;-77
2021/05/27 02:02:55;;;;;;;4.55;2.95;;;7.90;99.90;;;;;;5094560;28;20522;-77
2021/05/27 02:05:22;;;;;;;4.10;2.72;;;7.90;99.90;;;;;;5103051;28;20036;-77
2021/05/27 02:07:47;;;;;;;8.43;3.33;;;7.90;99.90;;;;;;5114654;28;20023;-77
2021/05/27 02:10:13;;;;;;;4.82;3.33;;;7.90;99.90;;;;;;5114666;28;20507;-77
2021/05/27 02:12:39;;;;;;;6.28;3.78;;;8.00;99.90;;;;;;5114300;28;20600;-77
2021/05/27 02:15:07;;;;;;;4.00;3.00;;;8.00;99.90;;;;;;5114507;28;20055;-77
2021/05/27 02:17:33;;;;;;;4.40;2.97;;;8.00;99.90;;;;;;5113963;28;20081;-77
2021/05/27 02:19:59;;;;;;;5.47;2.58;;;8.00;99.90;;;;;;5114562;28;20092;-77
2021/05/27 02:22:24;;;;;;;6.13;2.92;;;8.00;99.90;;;;;;5113020;28;20487;-77
2021/05/27 02:24:50;;;;;;;6.22;2.42;;;8.00;99.90;;;;;;5114119;27;20028;-77
2021/05/27 02:27:17;;;;;;;4.85;2.50;;;7.70;99.90;;;;;;5113973;28;20024;-77
2021/05/27 02:29:43;;;;;;;4.07;2.20;;;7.60;99.90;;;;;;5113706;28;20042;-77
2021/05/27 02:32:08;;;;;;;5.75;2.92;;;7.60;99.90;;;;;;5114122;28;20441;-77
2021/05/27 02:34:34;;;;;;;4.80;2.95;;;7.70;99.90;;;;;;5114046;28;20089;-77
2021/05/27 02:37:00;;;;;;;8.18;2.65;;;7.60;99.90;;;;;;5114048;28;20103;-77
2021/05/27 02:39:27;;;;;;;9.20;3.45;;;7.70;99.90;;;;;;5096702;28;20103;-77
2021/05/27 02:41:53;;;;;;;3.75;3.00;;;7.70;99.90;;;;;;5093605;28;20024;-77
2021/05/27 02:44:19;;;;;;;5.20;3.30;;;7.60;99.90;;;;;;5093774;28;20415;-77
2021/05/27 02:46:45;;;;;;;11.77;4.35;;;7.50;99.90;;;;;;5093499;28;20039;-77
2021/05/27 02:49:11;;;;;;;7.05;3.40;;;7.60;99.90;;;;;;5094013;28;20016;-77
2021/05/27 02:51:37;;;;;;;4.53;3.03;;;7.80;99.90;;;;;;5093246;28;20020;-77
2021/05/27 02:54:03;;;;;;;7.63;3.28;;;7.70;99.90;;;;;;5093382;28;20028;-77
2021/05/27 02:56:29;;;;;;;4.63;3.53;;;7.70;99.90;;;;;;5093135;28;20020;-77
2021/05/27 02:58:55;;;;;;;5.00;2.65;;;7.50;99.90;;;;;;5093344;28;20047;-77
2021/05/27 03:01:20;;;;;;;8.45;4.35;;;7.40;99.90;;;;;;5093364;28;20039;-77
2021/05/27 03:03:46;;;;;;;6.85;3.00;;;7.40;99.90;;;;;;5093012;28;20028;-77
2021/05/27 03:06:12;;;;;;;9.80;3.35;;;7.50;99.90;;;;;;5093134;28;20028;-77
2021/05/27 03:08:40;;;;;;;6.22;2.78;;;7.50;99.90;;;;;;5093175;28;20089;-77
2021/05/27 03:11:06;;;;;;;5.97;2.85;;;7.40;99.90;;;;;;5093007;28;20111;-77
2021/05/27 03:13:32;;;;;;;3.42;2.28;;;7.30;99.90;;;;;;5093201;28;20113;-77
2021/05/27 03:15:58;;;;;;;5.38;3.22;;;7.20;99.90;;;;;;5092575;28;20464;-77
2021/05/27 03:18:24;;;;;;;7.75;3.25;;;7.20;99.90;;;;;;5093090;28;20095;-77
2021/05/27 03:20:50;;;;;;;13.65;3.40;;;7.20;99.90;;;;;;5092756;28;20054;-77
2021/05/27 03:23:15;;;;;;;8.45;3.17;;;7.20;99.90;;;;;;5093476;28;20020;-77
2021/05/27 03:25:46;;;;;;;5.65;3.55;;;7.20;99.90;;;;;;5092320;28;20027;-77
2021/05/27 03:28:12;;;;;;;10.38;3.03;;;7.20;99.90;;;;;;5093750;28;20035;-77
2021/05/27 03:30:37;;;;;;;6.78;2.92;;;7.20;99.90;;;;;;5106377;28;20409;-77
2021/05/27 03:33:04;;;;;;;7.10;3.80;;;7.20;99.90;;;;;;5112343;28;20039;-77
2021/05/27 03:35:30;;;;;;;6.95;3.25;;;7.20;99.90;;;;;;5101707;28;20062;-77
2021/05/27 03:37:56;;;;;;;9.15;3.80;;;7.20;99.90;;;;;;5103977;28;20536;-77
2021/05/27 03:40:21;;;;;;;7.93;3.47;;;7.20;99.90;;;;;;5113113;28;20028;-77
2021/05/27 03:42:49;;;;;;;6.07;3.53;;;7.30;99.90;;;;;;5112018;28;20031;-77
2021/05/27 03:45:27;;;;;;;7.72;3.85;;;7.40;99.90;;;;;;5095110;28;20024;-77
2021/05/27 03:47:53;;;;;;;11.45;4.30;;;7.30;99.90;;;;;;5102977;28;20051;-77
2021/05/27 03:50:21;;;;;;;6.70;2.85;;;7.30;99.90;;;;;;5092981;28;20020;-77
2021/05/27 03:52:48;;;;;;;4.93;3.35;;;7.20;99.90;;;;;;5099128;28;20024;-77
2021/05/27 03:55:15;;;;;;;4.65;2.63;;;7.20;99.90;;;;;;5098559;28;20059;-77
2021/05/27 03:57:43;;;;;;;3.35;2.33;;;7.10;99.90;;;;;;5097220;28;20027;-77
2021/05/27 04:02:58;;;;;;;8.10;3.33;;;6.90;99.90;;;;;;5098165;28;20039;-77
2021/05/27 04:08:23;;;;;;;6.32;3.67;;;7.00;99.90;;;;;;5079301;28;20047;-77
2021/05/27 04:10:49;;;;;;;10.43;4.00;;;6.90;99.90;;;;;;5092505;28;20392;-77
2021/05/27 04:13:15;;;;;;;6.68;3.13;;;7.10;99.90;;;;;;5092693;28;20032;-77
2021/05/27 04:15:42;;;;;;;6.53;2.95;;;7.10;99.90;;;;;;5096905;28;20039;-77
2021/05/27 04:18:09;;;;;;;4.80;3.00;;;6.90;99.90;;;;;;5111366;28;20042;-77
2021/05/27 04:20:56;;;;;;;5.15;2.83;;;6.80;99.90;;;;;;5093520;28;20055;-77
2021/05/27 04:23:38;;;;;;;4.43;2.60;;;6.70;99.90;;;;;;5091569;28;20395;-77
2021/05/27 04:26:04;;;;;;;6.78;3.72;;;6.90;99.90;;;;;;5096214;28;20114;-77
2021/05/27 04:28:31;;;;;;;7.10;3.03;;;6.90;99.90;;;;;;5106652;28;20502;-77
2021/05/27 04:31:08;;;;;;;11.98;3.80;;;6.80;99.90;;;;;;5108773;28;20019;-77
2021/05/27 04:33:44;;;;;;;8.35;3.72;;;6.80;99.90;;;;;;5101504;28;20059;-77
2021/05/27 04:36:14;;;;;;;7.93;4.25;;;6.90;99.90;;;;;;5105563;28;20028;-77
2021/05/27 04:38:41;;;;;;;9.15;4.30;;;7.00;99.90;;;;;;5097802;28;20035;-77
2021/05/27 04:41:07;;;;;;;8.75;3.38;;;7.10;99.90;;;;;;5111867;27;20036;-77
2021/05/27 04:43:40;;;;;;;4.47;2.70;;;7.20;99.90;;;;;;5117329;27;20036;-77
2021/05/27 04:46:06;;;;;;;5.05;3.10;;;7.10;99.90;;;;;;5111589;28;20094;-77
2021/05/27 04:48:32;;;;;;;6.07;3.13;;;7.10;99.90;;;;;;5113145;27;20015;-77
2021/05/27 04:50:58;;;;;;;6.30;2.95;;;6.90;99.90;;;;;;5111767;28;20027;-77
2021/05/27 04:53:26;;;;;;;5.70;3.65;;;6.80;99.90;;;;;;5104942;28;20532;-77
2021/05/27 04:55:53;;;;;;;7.18;4.00;;;6.90;99.90;;;;;;5110143;28;20020;-77
2021/05/27 04:58:20;;;;;;;10.90;4.75;;;6.90;99.90;;;;;;5102170;28;20020;-75
2021/05/27 05:00:46;;;;;;;11.55;6.10;;;7.10;99.90;;;;;;5106030;28;20012;-75
2021/05/27 05:03:12;;;;;;;9.90;4.22;;;7.20;99.90;;;;;;5095992;28;20023;-75
2021/05/27 05:05:38;;;;;;;5.03;3.40;;;7.20;99.90;;;;;;5105442;28;20036;-75
2021/05/27 05:08:05;;;;;;;6.70;3.50;;;7.30;99.90;;;;;;5112341;28;20104;-76
2021/05/27 05:10:32;;;;;;;6.10;3.30;;;7.30;99.90;;;;;;5098250;28;20020;-77
2021/05/27 05:12:58;;;;;;;8.32;3.47;;;7.30;99.90;;;;;;5110109;28;20016;-76
2021/05/27 05:15:25;;;;;;;3.60;2.88;;;7.40;99.90;;;;;;5114018;28;20039;-76
2021/05/27 05:17:52;;;;;;;11.73;4.50;;;7.40;99.90;;;;;;5107802;28;20035;-76
2021/05/27 05:20:22;;;;;;;6.97;3.67;;;7.50;99.90;;;;;;5112322;27;20468;-76
2021/05/27 05:22:48;;;;;;;;;;;7.50;99.90;;;;;;5105372;27;20414;-76
2021/05/27 05:25:14;;;;;;;5.75;3.40;;;7.60;99.90;;;;;;5109090;28;19908;-77
2021/05/27 05:27:41;;;;;;;7.55;3.17;;;7.60;99.90;;;;;;5103828;28;20039;-76
2021/05/27 05:30:07;;;;;;;8.25;4.10;;;7.70;99.90;;;;;;5115074;28;20103;-76
2021/05/27 05:32:33;;;;;;;6.60;3.92;;;7.80;99.90;;;;;;5105047;28;20047;-76
2021/05/27 05:35:00;;;;;;;8.90;4.50;;;7.90;99.90;;;;;;5096631;28;20028;-76
2021/05/27 05:37:27;;;;;;;9.10;3.65;;;7.90;99.90;;;;;;5108128;28;20497;-76
2021/05/27 05:39:52;;;;;;;7.03;3.97;;;8.00;99.90;;;;;;5106813;28;20027;-77
2021/05/27 05:42:18;;;;;;;6.28;3.17;;;7.90;99.90;;;;;;5108916;27;20028;-77
2021/05/27 05:44:44;;;;;;;13.20;3.63;;;7.90;99.90;;;;;;5106322;28;20084;-77
2021/05/27 05:47:10;;;;;;;7.88;3.15;;;7.90;99.90;;;;;;5101118;28;20016;-78
2021/05/27 05:49:36;;;;;;;9.23;4.40;;;8.00;99.90;;;;;;5103862;28;20197;-77
2021/05/27 05:52:01;;;;;;;8.40;4.53;;;8.20;99.90;;;;;;5113978;28;20023;-78
2021/05/27 05:54:27;;;;;;;6.97;3.78;;;8.40;99.90;;;;;;5097765;27;20472;-77
2021/05/27 05:56:53;;;;;;;6.68;4.05;;;8.40;99.90;;;;;;5111076;28;20035;-78
2021/05/27 05:59:19;;;;;;;6.93;4.10;;;8.50;99.90;;;;;;5102768;27;20038;-78
2021/05/27 06:01:45;;;;;;;7.57;4.25;;;8.70;99.90;;;;;;5102683;28;20368;-78
2021/05/27 06:04:10;;;;;;;10.75;3.67;;;8.70;99.90;;;;;;5109036;28;20040;-78
2021/05/27 06:06:36;;;;;;;10.13;3.50;;;8.80;99.90;;;;;;5106610;28;20058;-78
2021/05/27 06:09:03;;;;;;;11.48;4.90;;;8.80;99.90;;;;;;5103376;28;20028;-78
2021/05/27 06:11:29;;;;;;;9.45;4.13;;;8.90;99.90;;;;;;5111360;28;20020;-78
2021/05/27 06:13:54;;;;;;;11.10;4.45;;;9.00;99.90;;;;;;5108003;28;20035;-78
2021/05/27 06:16:21;;;;;;;8.90;3.80;;;9.20;99.90;;;;;;5110758;28;20044;-78
2021/05/27 06:18:46;;;;;;;22.75;4.50;;;9.20;99.90;;;;;;5111211;28;20035;-78
2021/05/27 06:21:12;;;;;;;14.77;4.32;;;9.30;99.90;;;;;;5110055;28;20073;-78
2021/05/27 06:23:38;;;;;;;17.05;4.90;;;9.40;99.90;;;;;;5106208;28;20042;-76
2021/05/27 06:26:04;;;;;;;6.40;3.80;;;9.60;99.90;;;;;;5106651;28;20047;-76
2021/05/27 06:28:29;;;;;;;13.43;5.07;;;9.70;99.90;;;;;;5107016;28;20055;-76
2021/05/27 06:30:56;;;;;;;7.95;3.83;;;9.90;99.90;;;;;;5106668;28;20043;-76
2021/05/27 06:33:22;;;;;;;12.45;4.22;;;10.10;99.90;;;;;;5104174;28;20144;-77
2021/05/27 06:35:48;;;;;;;16.33;4.80;;;10.20;99.90;;;;;;5106548;28;20387;-77
2021/05/27 06:38:14;;;;;;;10.35;4.18;;;10.30;99.90;;;;;;5106475;27;20020;-76
2021/05/27 06:40:41;;;;;;;12.90;4.97;;;10.40;99.90;;;;;;5101843;28;20030;-77
2021/05/27 06:43:07;;;;;;;5.65;3.30;;;10.50;99.90;;;;;;5099771;28;20035;-77
2021/05/27 06:45:33;;;;;;;8.40;3.88;;;10.70;99.90;;;;;;5104675;28;20043;-77
2021/05/27 06:47:59;;;;;;;8.65;3.22;;;10.70;99.90;;;;;;5104051;28;20476;-77
2021/05/27 06:50:39;;;;;;;10.75;4.97;;;10.80;99.90;;;;;;5106394;28;20020;-77
2021/05/27 06:53:06;;;;;;;;;;;11.00;99.90;;;;;;5109949;28;20012;-76
2021/05/27 06:55:33;;;;;;;9.88;3.85;;;11.20;99.90;;;;;;5106756;28;20401;-76
2021/05/27 06:58:00;;;;;;;10.80;3.90;;;11.30;99.90;;;;;;5110039;28;20027;-77
2021/05/27 07:00:27;;;;;;;7.50;4.25;;;11.50;99.90;;;;;;5104550;28;20073;-77
2021/05/27 07:02:54;;;;;;;8.90;4.20;;;11.50;99.90;;;;;;5110686;28;20028;-77
2021/05/27 07:05:20;;;;;;;8.57;4.13;;;11.70;99.90;;;;;;5108231;27;20098;-77
2021/05/27 07:07:47;;;;;;;12.07;4.30;;;11.90;99.90;;;;;;5109352;27;20032;-77
2021/05/27 07:10:15;;;;;;;8.50;4.25;;;12.00;99.90;;;;;;5106972;28;20111;-77
2021/05/27 07:12:52;;;;;;;7.13;4.13;;;12.10;99.90;;;;;;5107890;28;20026;-77
2021/05/27 07:15:19;;;;;;;10.13;4.45;;;12.30;99.90;;;;;;5106040;28;20080;-77
2021/05/27 07:17:46;;;;;;;10.02;3.88;;;12.50;99.90;;;;;;5109470;28;20077;-77
2021/05/27 07:20:13;;;;;;;7.70;4.30;;;12.60;99.90;;;;;;5108249;28;20054;-77
2021/05/27 07:22:40;;;;;;;5.90;3.47;;;12.70;99.90;;;;;;5106714;28;20024;-77
2021/05/27 07:25:07;;;;;;;10.98;4.53;;;12.90;99.90;;;;;;5106366;28;20034;-77
2021/05/27 07:27:33;;;;;;;12.75;3.90;;;13.10;99.90;;;;;;5096770;28;20035;-77
2021/05/27 07:30:00;;;;;;;7.35;3.63;;;13.20;99.90;;;;;;5106637;28;20077;-77
2021/05/27 07:32:26;;;;;;;9.68;4.57;;;13.30;99.90;;;;;;5107837;28;20044;-77
2021/05/27 07:34:52;;;;;;;10.35;3.83;;;13.60;99.90;;;;;;5103789;28;20034;-77
2021/05/27 07:37:18;;;;;;;10.75;3.40;;;13.80;99.30;;;;;;5111381;28;20487;-77
2021/05/27 07:39:47;;;;;;;5.60;3.40;;;13.90;95.00;;;;;;5101305;27;20047;-77
2021/05/27 07:42:13;;;;;;;8.82;4.00;;;14.30;93.30;;;;;;5107556;28;20031;-77
2021/05/27 07:44:39;;;;;;;13.75;3.88;;;14.60;89.90;;;;;;5109882;28;20035;-77
2021/05/27 07:47:05;;;;;;;8.32;3.42;;;14.70;90.90;;;;;;5109632;28;20479;-77
2021/05/27 07:49:31;;;;;;;7.13;2.90;;;15.10;86.40;;;;;;5097898;28;20035;-77
2021/05/27 07:51:58;;;;;;;6.55;2.78;;;15.30;87.30;;;;;;5105846;28;20023;-77
2021/05/27 07:54:25;;;;;;;5.78;2.75;;;15.40;87.30;;;;;;5100523;27;20028;-77
2021/05/27 07:56:51;;;;;;;7.28;2.88;;;15.50;82.80;;;;;;5107709;28;20023;-77
2021/05/27 07:59:16;;;;;;;8.20;2.58;;;15.50;84.30;;;;;;5107692;28;20028;-77
2021/05/27 08:01:43;;;;;;;8.93;2.65;;;15.60;83.60;;;;;;5104863;28;20023;-78
2021/05/27 08:04:09;;;;;;;6.20;2.75;;;15.70;85.40;;;;;;5110795;28;20406;-77
2021/05/27 08:06:35;;;;;;;6.97;2.45;;;15.90;83.50;;;;;;5104712;28;20043;-77
2021/05/27 08:09:03;;;;;;;6.93;2.83;;;16.10;84.20;;;;;;5101725;28;20021;-78
2021/05/27 08:11:29;;;;;;;5.05;2.55;;;16.40;82.30;;;;;;5111548;28;20092;-77
2021/05/27 08:13:55;;;;;;;3.58;2.17;;;16.60;80.00;;;;;;5109397;28;20031;-78
2021/05/27 08:16:20;;;;;;;5.00;2.80;;;16.60;80.00;;;;;;5101733;28;20019;-77
2021/05/27 08:18:46;;;;;;;5.68;2.03;;;16.80;76.60;;;;;;5109084;28;20076;-77
2021/05/27 08:21:12;;;;;;;5.38;2.58;;;16.90;76.40;;;;;;5111047;28;20019;-77
2021/05/27 08:23:38;;;;;;;5.80;2.47;;;17.30;76.30;;;;;;5104925;28;20035;-77
2021/05/27 08:26:03;;;;;;;6.05;2.67;;;17.50;74.60;;;;;;5102962;28;20053;-77
2021/05/27 08:28:30;;;;;;;4.97;2.40;;;17.50;75.70;;;;;;5108992;28;20016;-77
2021/05/27 08:30:56;;;;;;;8.70;2.38;;;17.70;77.20;;;;;;5103900;28;20059;-78
2021/05/27 08:33:21;;;;;;;4.38;2.20;;;17.60;76.50;;;;;;5098869;28;20071;-77
2021/05/27 08:35:47;;;;;;;9.43;2.92;;;17.70;77.10;;;;;;5099449;28;20032;-77
2021/05/27 08:38:13;;;;;;;4.85;2.35;;;18.00;75.70;;;;;;5097861;28;20047;-77
2021/05/27 08:40:39;;;;;;;3.38;2.45;;;18.10;77.60;;;;;;5106647;28;20488;-77
2021/05/27 08:43:05;;;;;;;5.22;2.42;;;18.40;76.10;;;;;;5100898;28;20024;-78
2021/05/27 08:45:34;;;;;;;5.82;2.03;;;18.40;74.00;;;;;;5103417;28;20039;-77
2021/05/27 08:48:00;;;;;;;3.88;2.10;;;18.50;74.40;;;;;;5105550;28;20032;-78
2021/05/27 08:50:40;;;;;;;5.25;2.60;;;18.60;73.10;;;;;;5108312;28;20031;-78
2021/05/27 08:53:06;;;;;;;;;;;18.60;74.00;;;;;;5103223;28;20483;-78
2021/05/27 08:55:32;;;;;;;5.15;2.38;;;18.80;71.40;;;;;;5106625;28;19973;-77
2021/05/27 08:57:59;;;;;;;5.25;2.38;;;19.00;71.70;;;;;;5103640;28;20426;-78
2021/05/27 09:00:24;;;;;;;3.97;2.40;;;19.10;72.80;;;;;;5110599;28;20541;-78
2021/05/27 09:03:01;;;;;;;5.68;2.53;;;19.20;72.90;;;;;;5104840;28;20115;-81
2021/05/27 09:05:30;;;;;;;4.72;2.53;;;19.40;70.50;;;;;;5103535;28;20024;-78
2021/05/27 09:07:56;;;;;;;6.30;3.10;;;19.60;71.60;;;;;;5108058;28;20398;-78
2021/05/27 09:10:41;;;;;;;6.45;2.40;;;19.50;68.90;;;;;;5109260;28;20103;-78
2021/05/27 09:13:17;;;;;;;5.80;3.03;;;19.40;68.30;;;;;;5108298;28;20495;-78
2021/05/27 09:15:43;;;;;;;6.90;3.10;;;19.70;69.70;;;;;;5110779;28;20023;-77
2021/05/27 09:18:09;;;;;;;4.53;2.72;;;19.80;67.10;;;;;;5110934;28;20032;-78
2021/05/27 09:20:35;;;;;;;3.70;2.38;;;19.90;68.30;;;;;;5111047;28;20475;-78
2021/05/27 09:23:20;;;;;;;9.30;3.55;;;19.90;70.60;;;;;;5107833;28;20052;-77
2021/05/27 09:25:48;;;;;;;11.40;3.17;;;19.90;68.70;;;;;;5102937;28;20076;-78
2021/05/27 09:28:23;;;;;;;6.53;2.55;;;19.80;66.90;;;;;;5102682;28;20104;-78
2021/05/27 09:30:57;;;;;;;5.32;2.70;;;20.10;67.50;;;;;;5108461;28;20492;-78
2021/05/27 09:33:35;;;;;;;10.60;3.97;;;20.20;67.10;;;;;;5107658;28;20054;-78
2021/05/27 09:36:14;;;;;;;8.05;2.97;;;20.30;64.00;;;;;;5106212;28;20065;-78
2021/05/27 09:38:42;;;;;;;5.43;2.55;;;20.30;67.80;;;;;;5107134;27;20023;-78
2021/05/27 09:41:20;;;;;;;4.18;2.67;;;20.30;66.30;;;;;;5105018;28;20084;-78
2021/05/27 09:43:53;;;;;;;4.53;2.47;;;20.80;65.00;;;;;;5102061;28;20032;-78
2021/05/27 09:46:20;;;;;;;6.38;2.80;;;20.70;63.60;;;;;;5103064;28;20411;-77
2021/05/27 09:48:47;;;;;;;7.30;3.25;;;20.90;66.20;;;;;;5100039;28;20491;-78
2021/05/27 09:51:28;;;;;;;8.70;3.10;;;21.30;67.60;;;;;;5101325;28;20044;-78
2021/05/27 09:53:56;;;;;;;7.40;3.35;;;21.10;63.50;;;;;;5101908;28;20024;-78
2021/05/27 09:56:38;;;;;;;4.85;3.10;;;21.40;65.80;;;;;;5100942;28;20031;-78
2021/05/27 09:59:06;;;;;;;5.18;3.10;;;21.20;65.20;;;;;;5110867;28;20062;-77
2021/05/27 10:01:32;;;;;;;5.28;2.75;;;21.40;65.40;;;;;;5108375;28;20059;-78
2021/05/27 10:04:27;;;;;;;8.10;2.70;;;21.60;63.80;;;;;;5100776;28;20496;-78
2021/05/27 10:06:52;;;;;;;5.90;3.00;;;21.80;65.60;;;;;;5085303;28;20054;-78
2021/05/27 10:09:19;;;;;;;10.13;3.83;;;22.30;67.10;;;;;;5094762;28;20024;-78
2021/05/27 10:11:46;;;;;;;8.48;4.38;;;25.30;64.50;;;;;;5094279;28;20103;-78
2021/05/27 10:14:12;;;;;;;9.55;3.75;;;29.60;56.70;;;;;;5094608;28;20030;-78
2021/05/27 10:16:38;;;;;;;8.20;4.13;;;32.40;51.30;;;;;;5094431;28;20024;-78
2021/05/27 10:19:06;;;;;;;8.77;4.63;;;33.80;47.80;;;;;;5094796;28;20039;-78
2021/05/27 10:21:31;;;;;;;5.97;3.60;;;34.90;46.70;;;;;;5094602;28;20020;-78
2021/05/27 10:23:59;;;;;;;7.78;4.10;;;35.40;44.80;;;;;;5094308;28;20482;-78
2021/05/27 10:26:25;;;;;;;7.68;4.10;;;35.30;44.30;;;;;;5109745;28;20068;-78
2021/05/27 10:28:53;;;;;;;6.25;3.72;;;36.10;42.70;;;;;;5114581;28;20094;-78
2021/05/27 10:31:24;;;;;;;5.82;4.25;;;36.10;42.30;;;;;;5114568;28;20388;-78
2021/05/27 10:33:52;;;;;;;5.82;3.85;;;36.40;42.40;;;;;;5114423;28;20558;-76
2021/05/27 10:36:18;;;;;;;6.97;4.57;;;36.80;40.70;;;;;;5114823;28;20521;-76
2021/05/27 10:38:50;;;;;;;7.65;4.97;;;36.70;42.60;;;;;;5114335;28;20016;-76
2021/05/27 10:41:29;;;;;;;6.57;4.28;;;37.40;42.50;;;;;;5114697;28;20027;-76
2021/05/27 10:44:01;;;;;;;8.65;4.03;;;37.70;41.60;;;;;;5114330;28;20031;-76
2021/05/27 10:46:47;;;;;;;6.35;4.40;;;37.40;40.40;;;;;;5114549;28;20054;-76
2021/05/27 10:49:54;;;;;;;6.65;4.25;;;37.70;40.10;;;;;;5103520;27;20069;-76
2021/05/27 10:52:33;;;;;;;5.40;3.92;;;37.40;41.40;;;;;;5114381;28;20027;-76
2021/05/27 10:54:58;;;;;;;5.88;4.22;;;36.70;38.80;;;;;;5093587;28;20027;-76
2021/05/27 10:57:39;;;;;;;10.82;4.85;;;36.70;40.10;;;;;;5106879;28;20383;-77
2021/05/27 11:00:30;;;;;;;8.63;5.05;;;36.60;44.20;;;;;;5111948;28;20028;-76
2021/05/27 11:03:16;;;;;;;7.30;4.72;;;36.40;40.60;;;;;;5093506;28;20103;-76
2021/05/27 11:06:20;;;;;;;7.38;4.88;;;37.10;40.10;;;;;;5093668;28;20054;-76
2021/05/27 11:08:47;;;;;;;5.75;4.65;;;37.40;38.10;;;;;;5093540;28;20039;-76
2021/05/27 11:11:40;;;;;;;6.60;4.95;;;37.10;39.30;;;;;;5093626;28;20016;-77
2021/05/27 11:14:41;;;;;;;6.82;4.60;;;36.70;39.20;;;;;;5093565;28;20107;-76
2021/05/27 11:17:18;;;;;;;7.28;4.68;;;36.40;39.70;;;;;;5093418;28;20095;-76
2021/05/27 11:25:16;;;;;;;5.75;4.45;;;37.90;39.70;;;;;;5093345;28;20028;-76
2021/05/27 11:27:42;;;;;;;8.50;5.03;;;38.20;40.30;;;;;;5093340;28;20086;-76
2021/05/27 11:30:33;;;;;;;10.73;4.72;;;37.00;38.60;;;;;;5093197;28;20028;-76
2021/05/27 11:33:12;;;;;;;6.65;4.68;;;37.80;40.20;;;;;;5092867;28;20048;-76
2021/05/27 11:35:38;;;;;;;7.70;4.47;;;37.50;40.10;;;;;;5093227;28;20024;-76
2021/05/27 11:38:10;;;;;;;9.07;4.85;;;38.40;39.80;;;;;;5092267;28;20028;-76
2021/05/27 11:40:39;;;;;;;6.90;4.45;;;39.20;38.70;;;;;;5093145;28;20032;-76
2021/05/27 11:43:05;;;;;;;7.27;4.67;;;39.30;37.20;;;;;;5092833;28;20028;-77
2021/05/27 11:45:52;;;;;;;6.93;5.00;;;38.40;39.00;;;;;;5093086;28;20388;-76
2021/05/27 11:48:28;;;;;;;9.35;4.78;;;38.10;39.10;;;;;;5093051;28;20032;-76
2021/05/27 11:51:16;;;;;;;5.47;4.00;;;38.60;37.00;;;;;;5092935;28;20106;-76
2021/05/27 11:53:50;;;;;;;14.20;4.93;;;39.50;37.50;;;;;;5092938;28;20028;-76
2021/05/27 11:56:46;;;;;;;8.02;4.30;;;40.30;37.80;;;;;;5092713;28;20020;-76
2021/05/27 11:59:18;;;;;;;5.93;4.50;;;39.70;36.50;;;;;;5092687;28;20024;-76
2021/05/27 12:01:49;;;;;;;5.60;4.43;;;39.20;38.10;;;;;;5092687;28;20073;-76
2021/05/27 12:04:17;;;;;;;11.55;4.70;;;39.50;36.40;;;;;;5101361;28;20035;-76
2021/05/27 12:07:03;;;;;;;5.03;4.10;;;39.00;37.80;;;;;;5112648;28;20110;-76
2021/05/27 12:09:38;;;;;;;7.15;4.00;;;39.00;37.40;;;;;;5113057;28;20119;-76
2021/05/27 12:12:16;;;;;;;6.47;4.65;;;39.70;37.00;;;;;;5112781;28;20102;-76
2021/05/27 12:14:42;;;;;;;7.28;5.10;;;38.40;36.50;;;;;;5112849;28;20016;-76
2021/05/27 12:17:32;;;;;;;8.52;4.10;;;38.50;35.80;;;;;;5112745;28;20516;-76
2021/05/27 12:20:12;;;;;;;8.75;4.55;;;40.10;35.30;;;;;;5112822;28;20027;-76
2021/05/27 12:22:43;;;;;;;8.30;5.28;;;41.30;35.00;;;;;;5112886;28;20024;-76
2021/05/27 12:25:10;;;;;;;5.63;4.28;;;41.30;34.40;;;;;;5112616;28;20080;-76
2021/05/27 12:27:44;;;;;;;13.73;4.80;;;41.90;34.60;;;;;;5112905;28;20097;-76
2021/05/27 12:30:12;;;;;;;4.93;4.45;;;42.40;34.40;;;;;;5112479;28;20399;-76
2021/05/27 12:32:43;;;;;;;5.80;4.57;;;41.60;32.50;;;;;;5112599;28;20035;-75
2021/05/27 12:35:14;;;;;;;5.28;4.25;;;41.60;34.40;;;;;;5112265;28;20032;-76
2021/05/27 12:37:46;;;;;;;5.13;4.35;;;40.60;35.30;;;;;;5112813;28;20070;-76
2021/05/27 12:40:23;;;;;;;9.25;5.05;;;41.60;34.70;;;;;;5112527;28;20024;-76
2021/05/27 12:42:50;;;;;;;6.97;4.20;;;40.60;35.20;;;;;;5112636;28;20039;-75
2021/05/27 12:45:23;;;;;;;5.57;5.05;;;40.40;34.80;;;;;;5112437;28;20023;-75
2021/05/27 12:48:07;;;;;;;7.72;4.32;;;41.00;35.90;;;;;;5112751;28;20382;-75
2021/05/27 12:50:34;;;;;;;5.93;4.43;;;41.60;35.20;;;;;;5116583;28;20364;-75
2021/05/27 12:53:00;;;;;;;4.72;4.25;;;41.70;32.80;;;;;;5116591;28;20505;-75
2021/05/27 12:55:32;;;;;;;7.07;4.55;;;41.70;33.50;;;;;;5116347;28;20084;-75
2021/05/27 12:57:59;;;;;;;4.45;4.05;;;41.30;34.70;;;;;;5116407;28;20055;-75
2021/05/27 13:00:26;;;;;;;4.68;4.28;;;40.80;32.00;;;;;;5116673;28;20054;-75
2021/05/27 13:03:00;;;;;;;5.50;4.35;;;41.00;33.50;;;;;;5116560;28;20072;-75
2021/05/27 13:05:26;;;;;;;5.30;4.68;;;39.70;35.00;;;;;;5115974;28;20057;-75
2021/05/27 13:07:59;;;;;;;6.88;4.25;;;39.00;34.40;;;;;;5116443;28;20032;-75
2021/05/27 13:10:39;;;;;;;5.95;4.28;;;39.30;34.00;;;;;;5116307;28;20435;-75
2021/05/27 13:13:05;;;;;;;;;;;40.10;34.90;;;;;;5116824;28;20028;-75